GMME Airport Information

Runway Information
Runway 04 Length 11483 ft width 148 ft
Elevation 273 ft Threshold 0 ft Heading 31
Runway 22 Length 11483 ft Width 148 ft
Elevation 240 ft Threshold 0 ft Heading 211
Airport Frequencies
Type APP Name APP Frequency 118.9 MHZ
Type TWR Name TWR Frequency 118.3 MHZ
Airport Navaids
Type VOR-DME Name Rabat Frequency 116500 KHZ
Type NDB Name Rabat Frequency 332 KHZ
Airport Weather Information & NOTAM
ADDS - METARS form results

(1245 UTC 23 February 2019)
Data provider http://aviationweather.gov/metar/data/
 
METAR text: GMME 231230Z 32005KT 270V010 5000 NSC 21/09 Q1027 NOSIG
Conditions at: GMME (RABAT/SALE (RMAF, MA) observed 1230 UTC 23 February 2019
Temperature: 21.0°C (70°F)
Dewpoint: 9.0°C (48°F) [RH = 46%]
Pressure (altimeter): 30.32 inches Hg (1027.0 mb)
Winds: from the NW (320 degrees) at 6 MPH (5 knots; 2.6 m/s)
Visibility: 3 miles ( 5 km)
Ceiling: at least 12,000 feet AGL
Clouds: sky clear below 12,000 feet AGL
Weather: no significant weather observed at this time

METAR text: GMME 231200Z 32004KT 280V360 5000 NSC 20/07 Q1027 NOSIG
Conditions at: GMME (RABAT/SALE (RMAF, MA) observed 1200 UTC 23 February 2019
Temperature: 20.0°C (68°F)
Dewpoint: 7.0°C (45°F) [RH = 43%]
Pressure (altimeter): 30.32 inches Hg (1027.0 mb)
Winds: from the NW (320 degrees) at 5 MPH (4 knots; 2.1 m/s)
Visibility: 3 miles ( 5 km)
Ceiling: at least 12,000 feet AGL
Clouds: sky clear below 12,000 feet AGL
Weather: no significant weather observed at this time

Forecast for: GMME (RABAT/SALE (RMAF, MA)
Text: TAF GMME 231100Z 2312/2406 34010KT 8000 NSC
Forecast period: 1200 to 1800 UTC 23 February 2019
Forecast type: FROM: standard forecast or significant change
Winds: from the NNW (340 degrees) at 12 MPH (10 knots; 5.1 m/s)
Visibility: 5 miles (8 km)
Ceiling: unknown
Clouds: missing
Weather: no significant weather forecast for this period
Text: BECMG 2318/2320 14004KT SCT013
Forecast period: 1800 UTC 23 February 2019 to 0600 UTC 24 February 2019
Forecast type: BECOMING: Conditions expected to become as follows by 2000 UTC 23 February 2019
Winds: from the SE (140 degrees) at 5 MPH (4 knots; 2.1 m/s)
Visibility: 5 miles (8 km)
Ceiling: at least 12,000 feet AGL
Clouds: scattered clouds at 1300 feet AGL
Weather: no significant weather forecast for this period